createdAt,value
2023-06-11T00:01:25.298Z,96788.19
2023-06-11T00:03:54.465Z,96785.41
2023-06-11T00:06:23.392Z,96781.38
2023-06-11T00:08:52.392Z,96789.25
2023-06-11T00:11:19.615Z,96790.81
2023-06-11T00:13:46.159Z,96781.66
2023-06-11T00:16:14.789Z,96780.09
2023-06-11T00:18:42.736Z,96776.09
2023-06-11T00:21:10.646Z,96779.47
2023-06-11T00:23:38.625Z,96774.38
2023-06-11T00:26:06.757Z,96779.72
2023-06-11T00:28:33.744Z,96780.91
2023-06-11T00:31:05.127Z,96788.53
2023-06-11T00:33:31.885Z,96796.97
2023-06-11T00:35:58.512Z,96785.47
2023-06-11T00:38:25.057Z,96790.63
2023-06-11T00:40:51.554Z,96792.41
2023-06-11T00:43:22.561Z,96789.84
2023-06-11T00:45:52.061Z,96783.28
2023-06-11T00:48:22.249Z,96792.16
2023-06-11T00:50:52.982Z,96789.63
2023-06-11T00:53:20.997Z,96785.84
2023-06-11T00:55:48.367Z,96789.94
2023-06-11T00:58:18.701Z,96785.50
2023-06-11T01:00:48.322Z,96782.78
2023-06-11T01:03:19.141Z,96790.63
2023-06-11T01:06:02.725Z,96790.97
2023-06-11T01:08:36.335Z,96788.75
2023-06-11T01:11:04.024Z,96785.38
2023-06-11T01:13:30.705Z,96779.94
2023-06-11T01:16:06.753Z,96785.69
2023-06-11T01:18:43.674Z,96784.31
2023-06-11T01:21:15.025Z,96785.47
2023-06-11T01:23:47.655Z,96790.13
2023-06-11T01:26:52.773Z,96793.19
2023-06-11T01:29:22.731Z,96791.59
2023-06-11T01:31:51.658Z,96793.66
2023-06-11T01:34:18.209Z,96791.75
2023-06-11T01:36:44.789Z,96789.25
2023-06-11T01:39:12.697Z,96789.84
2023-06-11T01:41:39.293Z,96781.34
2023-06-11T01:44:05.833Z,96783.72
2023-06-11T01:46:33.229Z,96791.56
2023-06-11T01:48:59.824Z,96781.56
2023-06-11T01:51:26.529Z,96778.88
2023-06-11T01:53:55.939Z,96786.50
2023-06-11T01:56:22.440Z,96787.22
2023-06-11T01:58:49.186Z,96788.31
2023-06-11T02:01:15.762Z,96793.66
2023-06-11T02:03:42.486Z,96789.91
2023-06-11T02:06:10.018Z,96784.56
2023-06-11T02:08:36.550Z,96782.97
2023-06-11T02:11:04.057Z,96776.81
2023-06-11T02:13:31.830Z,96784.16
2023-06-11T02:16:00.045Z,96778.59
2023-06-11T02:18:26.610Z,96773.66
2023-06-11T02:20:53.263Z,96780.38
2023-06-11T02:23:20.020Z,96776.81
2023-06-11T02:25:46.617Z,96785.94
2023-06-11T02:28:13.089Z,96783.16
2023-06-11T02:30:39.548Z,96789.09
2023-06-11T02:33:06.131Z,96789.47
2023-06-11T02:35:32.644Z,96778.56
2023-06-11T02:37:59.171Z,96783.50
2023-06-11T02:40:25.681Z,96785.88
2023-06-11T02:42:52.188Z,96789.47
2023-06-11T02:45:18.638Z,96787.13
2023-06-11T02:47:45.180Z,96792.66
2023-06-11T02:50:11.657Z,96802.19
2023-06-11T02:52:38.202Z,96792.38
2023-06-11T02:55:05.113Z,96796.03
2023-06-11T02:57:31.595Z,96801.97
2023-06-11T02:59:58.097Z,96801.88
2023-06-11T03:02:24.574Z,96810.22
2023-06-11T03:04:51.075Z,96805.09
2023-06-11T03:07:17.544Z,96815.97
2023-06-11T03:09:44.017Z,96812.94
2023-06-11T03:12:10.599Z,96809.38
2023-06-11T03:14:37.085Z,96812.69
2023-06-11T03:17:03.719Z,96817.91
2023-06-11T03:19:30.360Z,96816.72
2023-06-11T03:21:57.200Z,96818.34
2023-06-11T03:24:23.793Z,96814.91
2023-06-11T03:26:50.756Z,96815.19
2023-06-11T03:29:17.224Z,96819.03
2023-06-11T03:31:45.021Z,96810.13
2023-06-11T03:34:11.623Z,96821.81
2023-06-11T03:36:38.134Z,96820.97
2023-06-11T03:39:04.597Z,96818.50
2023-06-11T03:41:31.314Z,96813.34
2023-06-11T03:43:57.818Z,96814.31
2023-06-11T03:46:24.349Z,96817.63
2023-06-11T03:48:50.905Z,96822.84
2023-06-11T03:51:17.588Z,96821.53
2023-06-11T03:53:44.207Z,96819.22
2023-06-11T03:56:10.813Z,96822.78
2023-06-11T03:58:37.322Z,96823.50
2023-06-11T04:01:03.804Z,96829.16
2023-06-11T04:03:30.381Z,96831.16
2023-06-11T04:05:57.023Z,96840.66
2023-06-11T04:08:23.511Z,96844.84
2023-06-11T04:10:50.060Z,96843.06
2023-06-11T04:13:16.681Z,96835.75
2023-06-11T04:15:43.154Z,96838.50
2023-06-11T04:18:11.110Z,96835.75
2023-06-11T04:20:37.864Z,96834.66
2023-06-11T04:23:04.449Z,96845.69
2023-06-11T04:25:32.850Z,96845.44
2023-06-11T04:27:59.527Z,96847.34
2023-06-11T04:30:28.106Z,96851.72
2023-06-11T04:32:56.461Z,96851.31
2023-06-11T04:35:24.838Z,96849.88
2023-06-11T04:37:51.404Z,96857.59
2023-06-11T04:40:19.685Z,96864.44
2023-06-11T04:42:47.591Z,96867.47
2023-06-11T04:45:14.449Z,96873.66
2023-06-11T04:47:41.748Z,96872.94
2023-06-11T04:50:08.863Z,96869.94
2023-06-11T04:52:44.124Z,96874.00
2023-06-11T04:55:11.673Z,96874.84
2023-06-11T04:57:39.450Z,96877.97
2023-06-11T05:00:12.318Z,96873.69
2023-06-11T05:02:39.889Z,96885.38
2023-06-11T05:05:06.962Z,96881.19
2023-06-11T05:07:34.259Z,96888.38
2023-06-11T05:10:02.563Z,96889.59
2023-06-11T05:12:29.044Z,96881.09
2023-06-11T05:14:55.560Z,96880.56
2023-06-11T05:17:22.089Z,96882.59
2023-06-11T05:19:48.588Z,96879.38
2023-06-11T05:22:15.064Z,96888.97
2023-06-11T05:24:44.003Z,96884.97
2023-06-11T05:27:10.766Z,96887.28
2023-06-11T05:29:39.107Z,96889.44
2023-06-11T05:32:06.772Z,96887.19
2023-06-11T05:34:34.420Z,96887.88
2023-06-11T05:37:02.230Z,96896.81
2023-06-11T05:39:28.760Z,96893.13
2023-06-11T05:41:55.209Z,96890.31
2023-06-11T05:44:21.596Z,96892.72
2023-06-11T05:46:48.286Z,96898.16
2023-06-11T05:49:14.929Z,96893.97
2023-06-11T05:51:41.461Z,96897.59
2023-06-11T05:54:08.491Z,96900.50
2023-06-11T05:56:34.984Z,96909.78
2023-06-11T05:59:01.773Z,96898.88
2023-06-11T06:01:29.733Z,96900.47
2023-06-11T06:03:56.538Z,96903.78
2023-06-11T06:06:23.140Z,96905.31
2023-06-11T06:08:49.612Z,96901.09
2023-06-11T06:11:16.073Z,96903.31
2023-06-11T06:13:42.546Z,96908.03
2023-06-11T06:16:09.282Z,96902.22
2023-06-11T06:18:38.221Z,96912.84
2023-06-11T06:21:04.757Z,96907.72
2023-06-11T06:23:31.156Z,96915.28
2023-06-11T06:25:57.808Z,96906.97
2023-06-11T06:28:24.285Z,96917.16
2023-06-11T06:30:51.248Z,96916.44
2023-06-11T06:33:17.906Z,96923.03
2023-06-11T06:35:44.481Z,96925.63
2023-06-11T06:38:10.923Z,96916.53
2023-06-11T06:40:37.314Z,96924.19
2023-06-11T06:43:03.918Z,96922.53
2023-06-11T06:45:30.489Z,96915.91
2023-06-11T06:47:57.017Z,96908.88
2023-06-11T06:50:23.569Z,96908.91
2023-06-11T06:52:50.049Z,96919.47
2023-06-11T06:55:16.408Z,96920.22
2023-06-11T06:57:42.900Z,96924.47
2023-06-11T07:00:09.969Z,96921.69
2023-06-11T07:02:36.900Z,96912.88
2023-06-11T07:05:04.850Z,96916.44
2023-06-11T07:07:31.312Z,96913.31
2023-06-11T07:09:57.796Z,96914.34
2023-06-11T07:12:24.261Z,96911.47
2023-06-11T07:14:51.263Z,96914.66
2023-06-11T07:17:19.450Z,96912.38
2023-06-11T07:19:46.185Z,96914.34
2023-06-11T07:22:12.737Z,96913.19
2023-06-11T07:24:43.972Z,96921.88
2023-06-11T07:27:11.486Z,96914.94
2023-06-11T07:29:40.168Z,96916.09
2023-06-11T07:32:09.919Z,96924.84
2023-06-11T07:34:36.594Z,96927.44
2023-06-11T07:37:03.199Z,96919.78
2023-06-11T07:39:29.771Z,96930.19
2023-06-11T07:41:56.388Z,96920.53
2023-06-11T07:44:22.866Z,96928.09
2023-06-11T07:46:49.407Z,96924.16
2023-06-11T07:49:16.114Z,96917.25
2023-06-11T07:51:43.885Z,96923.41
2023-06-11T07:54:10.347Z,96923.38
2023-06-11T07:56:37.041Z,96921.47
2023-06-11T07:59:03.829Z,96927.50
2023-06-11T08:01:30.676Z,96923.88
2023-06-11T08:03:57.937Z,96910.75
2023-06-11T08:06:26.582Z,96924.00
2023-06-11T08:08:53.404Z,96918.75
2023-06-11T08:11:20.096Z,96918.00
2023-06-11T08:13:47.604Z,96915.59
2023-06-11T08:16:14.331Z,96925.41
2023-06-11T08:18:40.940Z,96926.25
2023-06-11T08:21:07.478Z,96920.22
2023-06-11T08:23:37.207Z,96915.22
2023-06-11T08:26:03.936Z,96919.38
2023-06-11T08:31:42.697Z,96924.31
2023-06-11T08:34:09.845Z,96914.44
2023-06-11T08:36:41.753Z,96917.34
2023-06-11T08:39:45.962Z,96919.88
2023-06-11T08:42:15.448Z,96917.56
2023-06-11T08:44:44.288Z,96903.69
2023-06-11T08:47:12.189Z,96908.03
2023-06-11T08:50:53.765Z,96903.47
2023-06-11T08:53:20.711Z,96912.69
2023-06-11T08:55:47.540Z,96907.78
2023-06-11T08:58:14.468Z,96907.88
2023-06-11T09:01:11.059Z,96901.25
2023-06-11T09:03:38.177Z,96908.13
2023-06-11T09:06:05.837Z,96917.56
2023-06-11T09:08:32.534Z,96908.22
2023-06-11T09:11:02.962Z,96915.38
2023-06-11T09:13:29.491Z,96911.66
2023-06-11T09:15:57.099Z,96906.88
2023-06-11T09:18:28.444Z,96918.13
2023-06-11T09:20:57.553Z,96923.13
2023-06-11T09:23:32.495Z,96912.53
2023-06-11T09:26:01.065Z,96917.91
2023-06-11T09:28:35.801Z,96910.25
2023-06-11T09:31:07.227Z,96914.22
2023-06-11T09:33:37.352Z,96908.28
2023-06-11T09:36:04.372Z,96911.41
2023-06-11T09:38:35.764Z,96908.22
2023-06-11T09:41:05.846Z,96906.31
2023-06-11T09:43:32.425Z,96907.75
2023-06-11T09:45:59.343Z,96914.22
2023-06-11T09:48:26.264Z,96919.94
2023-06-11T09:50:54.399Z,96904.22
2023-06-11T09:53:22.397Z,96922.13
2023-06-11T09:58:25.464Z,96916.19
2023-06-11T10:00:53.804Z,96918.00
2023-06-11T10:03:20.888Z,96916.47
2023-06-11T10:05:47.795Z,96924.59
2023-06-11T10:08:23.346Z,96922.34
2023-06-11T10:10:56.040Z,96918.06
2023-06-11T10:13:30.645Z,96914.84
2023-06-11T10:16:00.533Z,96917.09
2023-06-11T10:18:27.850Z,96911.59
2023-06-11T10:21:04.077Z,96917.34
2023-06-11T10:23:41.677Z,96916.53
2023-06-11T10:26:12.682Z,96910.97
2023-06-11T10:28:43.393Z,96910.38
2023-06-11T10:31:10.164Z,96914.00
2023-06-11T10:33:46.350Z,96908.50
2023-06-11T10:36:26.582Z,96894.44
2023-06-11T10:39:09.989Z,96905.88
2023-06-11T10:41:41.104Z,96909.56
2023-06-11T10:44:08.698Z,96912.84
2023-06-11T10:46:47.117Z,96901.50
2023-06-11T10:49:15.819Z,96909.06
2023-06-11T10:51:42.714Z,96895.59
2023-06-11T10:54:09.314Z,96909.75
2023-06-11T10:56:41.619Z,96905.78
2023-06-11T10:59:11.049Z,96906.09
2023-06-11T11:01:38.418Z,96903.75
2023-06-11T11:04:05.640Z,96906.38
2023-06-11T11:06:32.927Z,96894.72
2023-06-11T11:09:00.481Z,96900.63
2023-06-11T11:11:29.801Z,96895.03
2023-06-11T11:14:01.525Z,96900.75
2023-06-11T11:16:28.749Z,96889.28
2023-06-11T11:18:55.392Z,96901.28
2023-06-11T11:21:28.985Z,96889.63
2023-06-11T11:23:56.869Z,96889.50
2023-06-11T11:26:23.557Z,96892.50
2023-06-11T11:28:50.044Z,96891.59
2023-06-11T11:31:21.210Z,96891.91
2023-06-11T11:33:51.575Z,96895.53
2023-06-11T11:36:18.199Z,96885.16
2023-06-11T11:38:44.608Z,96885.59
2023-06-11T11:41:11.102Z,96883.72
2023-06-11T11:43:40.710Z,96873.19
2023-06-11T11:46:18.289Z,96876.66
2023-06-11T11:48:45.260Z,96878.50
2023-06-11T11:51:14.644Z,96881.53
2023-06-11T11:53:42.586Z,96876.00
2023-06-11T11:56:09.634Z,96877.13
2023-06-11T11:58:43.070Z,96866.63
2023-06-11T12:01:24.258Z,96876.06
2023-06-11T12:04:02.214Z,96871.06
2023-06-11T12:06:30.414Z,96869.22
2023-06-11T12:08:57.184Z,96857.38
2023-06-11T12:11:23.662Z,96863.72
2023-06-11T12:13:50.270Z,96854.00
2023-06-11T12:16:16.741Z,96852.06
2023-06-11T12:18:43.326Z,96854.09
2023-06-11T12:21:10.591Z,96858.41
2023-06-11T12:23:37.404Z,96850.91
2023-06-11T12:26:04.042Z,96849.28
2023-06-11T12:28:30.639Z,96836.84
2023-06-11T12:30:58.021Z,96841.94
2023-06-11T12:33:24.556Z,96842.03
2023-06-11T12:35:51.271Z,96839.13
2023-06-11T12:38:19.579Z,96846.94
2023-06-11T12:40:46.068Z,96839.88
2023-06-11T12:43:12.540Z,96837.22
2023-06-11T12:45:39.115Z,96833.28
2023-06-11T12:48:06.084Z,96834.03
2023-06-11T12:50:32.827Z,96821.44
2023-06-11T12:53:00.357Z,96820.03
2023-06-11T12:55:26.871Z,96821.47
2023-06-11T12:57:53.432Z,96826.59
2023-06-11T13:00:20.365Z,96817.63
2023-06-11T13:02:47.014Z,96815.94
2023-06-11T13:05:13.468Z,96816.34
2023-06-11T13:07:39.943Z,96824.19
2023-06-11T13:10:06.856Z,96818.53
2023-06-11T13:12:33.767Z,96815.78
2023-06-11T13:15:00.865Z,96821.72
2023-06-11T13:17:27.467Z,96810.06
2023-06-11T13:19:55.592Z,96807.69
2023-06-11T13:22:22.350Z,96811.88
2023-06-11T13:24:48.989Z,96809.06
2023-06-11T13:27:15.522Z,96801.44
2023-06-11T13:29:42.266Z,96809.06
2023-06-11T13:32:09.358Z,96811.41
2023-06-11T13:34:36.947Z,96797.81
2023-06-11T13:37:04.244Z,96799.25
2023-06-11T13:39:30.845Z,96804.28
2023-06-11T13:41:58.689Z,96798.09
2023-06-11T13:44:25.625Z,96800.25
2023-06-11T13:46:52.660Z,96801.19
2023-06-11T13:49:19.270Z,96798.41
2023-06-11T13:51:45.689Z,96791.44
2023-06-11T13:54:12.167Z,96807.28
2023-06-11T13:56:39.544Z,96789.38
2023-06-11T13:59:06.215Z,96789.03
2023-06-11T14:01:32.819Z,96796.44
2023-06-11T14:03:59.368Z,96793.34
2023-06-11T14:06:26.060Z,96787.63
2023-06-11T14:08:52.512Z,96790.50
2023-06-11T14:11:19.374Z,96785.31
2023-06-11T14:13:46.229Z,96772.81
2023-06-11T14:16:13.047Z,96780.50
2023-06-11T14:18:39.669Z,96773.31
2023-06-11T14:21:06.314Z,96759.19
2023-06-11T14:23:32.800Z,96769.16
2023-06-11T14:25:59.409Z,96771.09
2023-06-11T14:28:25.850Z,96767.50
2023-06-11T14:30:53.947Z,96767.50
2023-06-11T14:33:21.128Z,96758.75
2023-06-11T14:35:48.066Z,96757.69
2023-06-11T14:38:14.575Z,96757.97
2023-06-11T14:40:41.420Z,96751.53
2023-06-11T14:43:07.922Z,96747.81
2023-06-11T14:45:34.564Z,96745.78
2023-06-11T14:48:01.691Z,96753.03
2023-06-11T14:50:28.378Z,96750.38
2023-06-11T14:52:55.231Z,96749.41
2023-06-11T14:55:21.707Z,96746.94
2023-06-11T14:57:48.202Z,96745.31
2023-06-11T15:00:16.710Z,96731.88
2023-06-11T15:02:43.315Z,96744.03
2023-06-11T15:05:09.903Z,96744.00
2023-06-11T15:07:36.551Z,96738.50
2023-06-11T15:10:04.537Z,96732.22
2023-06-11T15:12:31.344Z,96736.16
2023-06-11T15:15:01.235Z,96739.69
2023-06-11T15:17:31.108Z,96733.97
2023-06-11T15:19:59.768Z,96738.25
2023-06-11T15:22:26.598Z,96738.66
2023-06-11T15:24:53.013Z,96728.91
2023-06-11T15:27:19.740Z,96733.78
2023-06-11T15:29:46.370Z,96728.66
2023-06-11T15:32:14.462Z,96727.84
2023-06-11T15:34:42.553Z,96730.03
2023-06-11T15:37:09.081Z,96732.50
2023-06-11T15:39:35.643Z,96728.38
2023-06-11T15:42:02.517Z,96733.47
2023-06-11T15:44:29.064Z,96725.09
2023-06-11T15:46:55.616Z,96719.44
2023-06-11T15:49:22.286Z,96727.78
2023-06-11T15:51:49.260Z,96716.84
2023-06-11T15:54:16.260Z,96735.03
2023-06-11T15:56:47.646Z,96724.50
2023-06-11T15:59:15.236Z,96732.03
2023-06-11T16:01:43.505Z,96724.69
2023-06-11T16:04:10.499Z,96727.53
2023-06-11T16:06:37.192Z,96724.78
2023-06-11T16:09:03.812Z,96722.19
2023-06-11T16:11:30.384Z,96727.22
2023-06-11T16:13:57.056Z,96731.50
2023-06-11T16:16:23.548Z,96723.81
2023-06-11T16:18:50.315Z,96731.09
2023-06-11T16:21:17.306Z,96736.13
2023-06-11T16:23:44.878Z,96733.06
2023-06-11T16:26:11.666Z,96731.84
2023-06-11T16:28:38.229Z,96732.84
2023-06-11T16:31:04.719Z,96728.72
2023-06-11T16:33:47.164Z,96735.81
2023-06-11T16:36:18.471Z,96720.41
2023-06-11T16:38:45.470Z,96730.59
2023-06-11T16:41:12.127Z,96724.28
2023-06-11T16:43:40.095Z,96731.75
2023-06-11T16:46:08.978Z,96732.72
2023-06-11T16:48:35.802Z,96729.25
2023-06-11T16:51:02.319Z,96728.47
2023-06-11T16:53:30.129Z,96730.84
2023-06-11T16:55:56.684Z,96721.28
2023-06-11T16:58:23.397Z,96721.28
2023-06-11T17:00:50.066Z,96718.84
2023-06-11T17:03:16.961Z,96721.28
2023-06-11T17:05:43.815Z,96717.53
2023-06-11T17:08:10.580Z,96716.94
2023-06-11T17:10:37.117Z,96719.34
2023-06-11T17:13:03.583Z,96713.91
2023-06-11T17:15:30.289Z,96714.69
2023-06-11T17:17:59.291Z,96710.72
2023-06-11T17:20:26.608Z,96705.41
2023-06-11T17:22:53.198Z,96708.03
2023-06-11T17:25:22.248Z,96708.16
2023-06-11T17:27:48.946Z,96705.84
2023-06-11T17:30:16.013Z,96704.69
2023-06-11T17:32:42.631Z,96699.50
2023-06-11T17:35:10.700Z,96704.03
2023-06-11T17:37:37.477Z,96703.16
2023-06-11T17:40:05.673Z,96704.53
2023-06-11T17:42:32.137Z,96707.78
2023-06-11T17:44:58.725Z,96703.41
2023-06-11T17:47:25.491Z,96705.72
2023-06-11T17:49:52.049Z,96713.56
2023-06-11T17:52:18.567Z,96707.34
2023-06-11T17:54:45.433Z,96712.00
2023-06-11T17:57:11.982Z,96716.44
2023-06-11T17:59:38.503Z,96706.38
2023-06-11T18:02:05.438Z,96708.66
2023-06-11T18:04:32.174Z,96698.25
2023-06-11T18:06:58.833Z,96711.38
2023-06-11T18:09:25.552Z,96710.38
2023-06-11T18:11:52.032Z,96707.53
2023-06-11T18:14:18.627Z,96714.09
2023-06-11T18:16:45.163Z,96716.91
2023-06-11T18:19:11.989Z,96714.75
2023-06-11T18:21:41.904Z,96712.19
2023-06-11T18:24:08.882Z,96724.44
2023-06-11T18:26:45.906Z,96723.78
2023-06-11T18:29:12.467Z,96720.53
2023-06-11T18:31:39.081Z,96722.22
2023-06-11T18:34:07.206Z,96727.84
2023-06-11T18:36:33.727Z,96723.31
2023-06-11T18:39:00.345Z,96728.50
2023-06-11T18:45:12.695Z,96726.91
2023-06-11T18:50:57.890Z,96732.53
2023-06-11T18:53:25.252Z,96733.25
2023-06-11T18:56:26.174Z,96735.47
2023-06-11T19:03:36.227Z,96744.03
2023-06-11T19:07:17.152Z,96741.88
2023-06-11T19:10:20.683Z,96730.91
2023-06-11T19:12:47.252Z,96743.78
2023-06-11T19:15:14.012Z,96734.47
2023-06-11T19:20:51.551Z,96744.31
2023-06-11T19:23:19.214Z,96753.56
2023-06-11T19:25:56.245Z,96750.13
2023-06-11T19:28:50.185Z,96756.56
2023-06-11T19:32:04.579Z,96754.63
2023-06-11T19:34:59.232Z,96757.50
2023-06-11T19:37:30.429Z,96759.06
2023-06-11T19:40:13.557Z,96765.63
2023-06-11T19:43:27.521Z,96774.44
2023-06-11T19:45:54.076Z,96769.75
2023-06-11T19:48:22.676Z,96768.41
2023-06-11T19:50:50.026Z,96766.44
2023-06-11T19:53:16.697Z,96779.06
2023-06-11T19:55:45.301Z,96773.19
2023-06-11T19:58:12.197Z,96775.09
2023-06-11T20:00:38.595Z,96778.25
2023-06-11T20:03:05.343Z,96777.34
2023-06-11T20:05:33.676Z,96776.34
2023-06-11T20:08:02.239Z,96773.63
2023-06-11T20:10:30.184Z,96778.41
2023-06-11T20:12:56.760Z,96784.28
2023-06-11T20:15:23.329Z,96781.47
2023-06-11T20:17:49.942Z,96788.75
2023-06-11T20:20:16.624Z,96784.44
2023-06-11T20:22:43.290Z,96784.28
2023-06-11T20:25:09.922Z,96791.00
2023-06-11T20:27:36.475Z,96787.97
2023-06-11T20:30:07.118Z,96795.25
2023-06-11T20:32:33.690Z,96794.81
2023-06-11T20:35:00.773Z,96800.63
2023-06-11T20:37:27.403Z,96792.44
2023-06-11T20:39:54.025Z,96799.59
2023-06-11T20:42:21.354Z,96797.25
2023-06-11T20:44:48.036Z,96797.69
2023-06-11T20:47:14.682Z,96799.44
2023-06-11T20:49:41.533Z,96799.59
2023-06-11T20:52:08.400Z,96794.84
2023-06-11T20:54:35.918Z,96798.16
2023-06-11T20:57:02.743Z,96790.94
2023-06-11T20:59:29.398Z,96791.53
2023-06-11T21:01:56.041Z,96787.44
2023-06-11T21:04:22.613Z,96788.09
2023-06-11T21:06:49.125Z,96793.81
2023-06-11T21:09:15.651Z,96787.47
2023-06-11T21:11:43.226Z,96789.22
2023-06-11T21:14:14.747Z,96781.28
2023-06-11T21:16:42.021Z,96780.38
2023-06-11T21:19:08.568Z,96785.13
2023-06-11T21:21:35.345Z,96781.16
2023-06-11T21:24:03.456Z,96781.16
2023-06-11T21:26:30.448Z,96790.97
2023-06-11T21:28:57.709Z,96785.63
2023-06-11T21:31:24.606Z,96784.50
2023-06-11T21:33:51.169Z,96780.25
2023-06-11T21:36:17.756Z,96776.72
2023-06-11T21:38:44.511Z,96787.50
2023-06-11T21:41:11.169Z,96785.28
2023-06-11T21:43:37.707Z,96781.81
2023-06-11T21:46:04.327Z,96777.84
2023-06-11T21:48:30.908Z,96780.66
2023-06-11T21:50:57.465Z,96788.25
2023-06-11T21:53:24.153Z,96787.00
2023-06-11T21:55:50.790Z,96785.91
2023-06-11T21:58:17.294Z,96788.44
2023-06-11T22:00:43.872Z,96789.69
2023-06-11T22:03:11.097Z,96781.47
2023-06-11T22:05:37.808Z,96781.78
2023-06-11T22:08:04.490Z,96792.78
2023-06-11T22:10:31.217Z,96792.28
2023-06-11T22:12:59.166Z,96781.66
2023-06-11T22:15:25.830Z,96782.56
2023-06-11T22:17:54.073Z,96768.78
2023-06-11T22:20:21.085Z,96780.91
2023-06-11T22:22:47.797Z,96780.91
2023-06-11T22:25:14.510Z,96772.13
2023-06-11T22:27:42.863Z,96775.91
2023-06-11T22:30:11.883Z,96780.13
2023-06-11T22:32:39.039Z,96776.47
2023-06-11T22:35:06.400Z,96772.13
2023-06-11T22:37:35.077Z,96782.91
2023-06-11T22:40:02.598Z,96774.22
2023-06-11T22:42:29.476Z,96779.59
2023-06-11T22:44:56.029Z,96780.25
2023-06-11T22:47:22.546Z,96772.94
2023-06-11T22:49:49.124Z,96769.47
2023-06-11T22:52:17.658Z,96772.25
2023-06-11T22:54:44.245Z,96774.44
2023-06-11T22:57:11.745Z,96771.13
2023-06-11T22:59:38.338Z,96776.25
2023-06-11T23:02:05.043Z,96781.38
2023-06-11T23:04:34.264Z,96782.34
2023-06-11T23:07:03.380Z,96789.28
2023-06-11T23:09:30.663Z,96787.97
2023-06-11T23:11:57.327Z,96783.97
2023-06-11T23:14:23.822Z,96781.03
2023-06-11T23:16:50.529Z,96781.41
2023-06-11T23:19:26.415Z,96780.16
2023-06-11T23:21:57.507Z,96784.31
2023-06-11T23:24:27.649Z,96773.94
2023-06-11T23:26:57.589Z,96774.06
2023-06-11T23:29:24.950Z,96767.97
2023-06-11T23:31:51.823Z,96776.38
2023-06-11T23:34:18.642Z,96772.13
2023-06-11T23:36:45.509Z,96766.44
2023-06-11T23:39:12.193Z,96772.84
2023-06-11T23:41:38.668Z,96770.25
2023-06-11T23:44:05.603Z,96766.78
2023-06-11T23:46:34.616Z,96765.84
2023-06-11T23:49:01.368Z,96766.16
2023-06-11T23:51:29.361Z,96763.59
2023-06-11T23:53:56.286Z,96763.19
2023-06-11T23:56:23.450Z,96763.09
2023-06-11T23:58:49.964Z,96753.56
